Decoded Metar for LEBR (BARDENAS REALES in SPAIN) (IATA:N/A) | Meteo·Mobile Aviation Weather
aviador You're here:

LEBR Decoded Metar

BARDENAS REALES in SPAIN
Report Time2019-07-22 16:00:00
UTC Time2019-07-22 16:14:38
Flight Rules vfr VFR
Wind120° at 13 kt
Visibility9999 m
Phenomena:N/A
Clouds:N/A
Expected CloudBase > 13,200 ft AGL from Temp-Dew spread
CeilingNone
Temp39°C (ISA +26)
Dew Point06°C (13% RH)
Heat Index36.5°C
AAT33.3°C
QNH1017 hPa
Density Alt3,878 ft
Elevation968 ft
Report Wrong Elevation
Raw Report
METAR LEBR 221600Z AUTO 12013KT 080V160 9999 NCD 39/06 Q1017=

Extra information for LEBR:More info

Airport Information Weather charts Add Link Nearby Venues Social comments